Station Historical Data
 
Daily Summary for July 21, 2018 Units:  Metric    English   Both
« Previous Day
Next Day »
Daily Weekly Monthly Yearly Custom
  Current: High: Low: Average:
Temperature: -7.2 °C -17.8 °C -8 °C -7.5 °C
Dew Point: -8.1 °C -17.8 °C -8.7 °C -8.1 °C
Humidity: 91 % Humidity % 89 % 93 %
Wind Speed: 15 km/h 0 km/h 0 km/h 10.6 km/h
Wind Gust: 10.1 km/h 0 km/h - -
Wind:NNW - - SSW
Pressure: 34198.6 hPa 0 hPa 34161.4 hPa -
Precipitation: 916.94 mm      
Historical Graphs
 
 
Tabular Data for July 21, 2018
Time Temperature Dew Point Pressure Wind Wind Speed Wind Gust Humidity Rainfall Rate (Hourly) solar Conditions
-17.8 °C -17.8 °C 0 hPa Calm     Humidity % 0 mm SolarRadiationWatts/m^2 W/m2 Conditions
00:03 -6.9 °C -7.7 °C 34168.1 hPa SE 23.8 km/h 14 km/h 91 % 180.34 mm 0.00 W/m2 RA
00:09 -6.8 °C -7.6 °C 34164.7 hPa SE 18.2 km/h 10.1 km/h 91 % 154.94 mm 0.00 W/m2 RA
00:14 -6.6 °C -7.4 °C 34164.7 hPa SE 10.3 km/h 6 km/h 91 % 134.62 mm 0.00 W/m2 BKN
00:18 -6.6 °C -7.4 °C 34164.7 hPa SSE 10.3 km/h 3.4 km/h 91 % 109.22 mm 0.00 W/m2 BKN
00:23 -6.5 °C -7.4 °C 34171.5 hPa SE 3.1 km/h   90 % 33.02 mm 0.00 W/m2 BKN
00:29 -6.4 °C -7.4 °C 34174.9 hPa Calm     90 % 7.62 mm 0.00 W/m2 BKN
00:34 -6.4 °C -7.4 °C 34178.3 hPa NNW 10.3 km/h 6.8 km/h 90 % 0 mm 0.00 W/m2 BKN
00:39 -6.5 °C -7.4 °C 34178.3 hPa NNW 15.6 km/h 11.1 km/h 90 % 0 mm 0.00 W/m2 BKN
00:44 -6.7 °C -7.7 °C 34191.8 hPa North 15.6 km/h 12.4 km/h 89 % 0 mm 0.00 W/m2 BKN
00:49 -6.9 °C -7.9 °C 34195.2 hPa NW 26.9 km/h 19.5 km/h 89 % 0 mm 0.00 W/m2 BKN
00:54 -7 °C -8 °C 34195.2 hPa NNW 20.9 km/h 17.4 km/h 89 % 0 mm 0.00 W/m2 BKN
00:59 -7.1 °C -8.1 °C 34202 hPa North 15.6 km/h 10.1 km/h 89 % 0 mm 0.00 W/m2 BKN
01:03 -7.1 °C -7.9 °C 34195.2 hPa North 15.6 km/h 8.5 km/h 90 % 0 mm 0.00 W/m2 BKN
01:08 -7.1 °C -7.9 °C 34188.4 hPa NNE 12.9 km/h 9.7 km/h 90 % 0 mm 0.00 W/m2 BKN
01:13 -7.1 °C -7.9 °C 34195.2 hPa North 12.9 km/h 7.7 km/h 90 % 0 mm 0.00 W/m2 BKN
01:18 -7 °C -7.8 °C 34188.4 hPa North 12.9 km/h 7.7 km/h 91 % 0 mm 0.00 W/m2 BKN
01:23 -7 °C -7.8 °C 34185.1 hPa NNE 12.9 km/h 7.6 km/h 91 % 0 mm 0.00 W/m2 BKN
01:28 -6.9 °C -7.7 °C 34188.4 hPa NNE 12.9 km/h 9.8 km/h 92 % 0 mm 0.00 W/m2 BKN
01:33 -6.8 °C -7.6 °C 34191.8 hPa NNW 11.9 km/h 5.6 km/h 92 % 0 mm 0.00 W/m2 BKN
01:38 -6.8 °C -7.6 °C 34205.4 hPa WNW 18.2 km/h 13.2 km/h 92 % 0 mm 0.00 W/m2 BKN
01:43 -6.7 °C -7.3 °C 34222.3 hPa WNW 36.2 km/h 26.2 km/h 93 % 0 mm 0.00 W/m2 BKN
01:48 -6.6 °C -7.3 °C 34218.9 hPa NW 59.5 km/h 36 km/h 92 % 7.62 mm 0.00 W/m2 RA
01:54 -7.2 °C -8.1 °C 34246 hPa NW 50.7 km/h 31.9 km/h 90 % 238.76 mm 0.00 W/m2 RA
01:58 -7.6 °C -8.5 °C 34232.5 hPa WSW 53.6 km/h 28.8 km/h 90 % 386.08 mm 0.00 W/m2 RA
02:03 -7.8 °C -8.7 °C 34198.6 hPa NNE 26.9 km/h 19.2 km/h 91 % 612.14 mm 0.00 W/m2 RA
02:09 -7.9 °C -8.7 °C 34195.2 hPa WNW 15.6 km/h 10.6 km/h 92 % 736.6 mm 0.00 W/m2 RA
02:13 -7.8 °C -8.4 °C 34191.8 hPa North 29.8 km/h 20.8 km/h 93 % 736.6 mm 0.00 W/m2 RA
02:19 -7.6 °C -8.2 °C 34195.2 hPa North 20.9 km/h 15.6 km/h 93 % 736.6 mm 0.00 W/m2 OVC
02:24 -7.5 °C -8.1 °C 34222.3 hPa North 17.9 km/h 10.1 km/h 94 % 741.68 mm 0.00 W/m2 RA
02:28 -7.4 °C -8 °C 34208.8 hPa NNE 17.9 km/h 11.6 km/h 94 % 741.68 mm 0.00 W/m2 RA
02:34 -7.4 °C -8 °C 34191.8 hPa ENE 10.3 km/h 4.3 km/h 94 % 741.68 mm 0.00 W/m2 BKN
02:39 -7.4 °C -7.9 °C 34198.6 hPa NE 5.1 km/h 1.8 km/h 94 % 741.68 mm 0.00 W/m2 BKN
02:43 -7.4 °C -7.9 °C 34202 hPa NE 7.7 km/h 3.7 km/h 94 % 741.68 mm 0.00 W/m2 BKN
02:49 -7.4 °C -8 °C 34205.4 hPa NE 3.1 km/h   94 % 728.98 mm 0.00 W/m2 RA
02:54 -7.4 °C -7.9 °C 34191.8 hPa ENE 9 km/h 5 km/h 94 % 528.32 mm 0.00 W/m2 RA
02:58 -7.4 °C -7.9 °C 34191.8 hPa ENE 5.1 km/h 1.3 km/h 94 % 386.08 mm 0.00 W/m2 RA
03:04 -7.4 °C -7.9 °C 34185.1 hPa ENE 6 km/h 3.1 km/h 94 % 129.54 mm 0.00 W/m2 RA
03:09 -7.4 °C -7.9 °C 34185.1 hPa NE 12.9 km/h 8.2 km/h 94 % 38.1 mm 0.00 W/m2 BKN
03:13 -7.4 °C -8 °C 34195.2 hPa East 11.9 km/h 4.3 km/h 94 % 38.1 mm 0.00 W/m2 BKN
03:19 -7.6 °C -8.1 °C 34191.8 hPa East 18.2 km/h 11.1 km/h 94 % 38.1 mm 0.00 W/m2 BKN
03:24 -7.7 °C -8.2 °C 34198.6 hPa ENE 17.9 km/h 6.8 km/h 94 % 33.02 mm 0.00 W/m2 BKN
03:28 -7.8 °C -8.3 °C 34191.8 hPa NE 15.6 km/h 10.9 km/h 94 % 38.1 mm 0.00 W/m2 RA
03:33 -7.8 °C -8.3 °C 34185.1 hPa ENE 9 km/h 6 km/h 94 % 38.1 mm 0.00 W/m2 RA
03:38 -7.7 °C -8.3 °C 34191.8 hPa SE 12.9 km/h 7.7 km/h 94 % 38.1 mm 0.00 W/m2 BKN
03:43 -7.7 °C -8.2 °C 34185.1 hPa ESE 12.9 km/h 8.5 km/h 95 % 38.1 mm 0.00 W/m2 BKN
03:48 -7.7 °C -8.2 °C 34188.4 hPa East 15.6 km/h 4.3 km/h 95 % 33.02 mm 0.00 W/m2 BKN
03:53 -7.7 °C -8.2 °C 34195.2 hPa SE 10.3 km/h 7.2 km/h 95 % 20.32 mm 0.00 W/m2 BKN
03:59 -7.7 °C -8.2 °C 34198.6 hPa SE 10.3 km/h 6 km/h 95 % 7.62 mm 0.00 W/m2 BKN
04:03 -7.7 °C -8.2 °C 34188.4 hPa ESE 17.9 km/h 6.4 km/h 95 % 7.62 mm 0.00 W/m2 SCT
04:08 -7.7 °C -8.2 °C 34188.4 hPa ESE 5.1 km/h 2.9 km/h 95 % 7.62 mm 0.00 W/m2 SCT
04:14 -7.7 °C -8.2 °C 34174.9 hPa NE 10.3 km/h 6 km/h 95 % 7.62 mm 0.00 W/m2 SCT
04:18 -7.8 °C -8.3 °C 34174.9 hPa ENE 9 km/h 5 km/h 95 % 7.62 mm 0.00 W/m2 SCT
04:23 -7.8 °C -8.3 °C 34185.1 hPa East 9 km/h 5 km/h 95 % 7.62 mm 0.00 W/m2 SCT
04:29 -7.8 °C -8.3 °C 34191.8 hPa East 3.1 km/h 0.3 km/h 95 % 0 mm 0.00 W/m2 SCT
04:33 -7.8 °C -8.3 °C 34188.4 hPa Calm     95 % 0 mm 0.00 W/m2 SCT
04:38 -7.8 °C -8.3 °C 34191.8 hPa Calm     95 % 0 mm 0.00 W/m2 SCT
04:44 -7.9 °C -8.3 °C 34191.8 hPa Calm     95 % 0 mm 0.00 W/m2 SCT
04:48 -7.9 °C -8.3 °C 34195.2 hPa Calm     95 % 0 mm 0.00 W/m2 SCT
04:53 -7.9 °C -8.3 °C 34191.8 hPa Calm     95 % 0 mm 0.00 W/m2 SCT
04:59 -7.9 °C -8.3 °C 34191.8 hPa ENE 6 km/h 2.3 km/h 95 % 0 mm 0.00 W/m2 SCT
05:03 -7.9 °C -8.3 °C 34188.4 hPa ENE 3.1 km/h 0.3 km/h 95 % 0 mm 0.00 W/m2 SCT
05:09 -7.9 °C -8.3 °C 34195.2 hPa North 9 km/h 4.2 km/h 95 % 0 mm 0.00 W/m2 SCT
05:14 -7.9 °C -8.3 °C 34191.8 hPa Calm     95 % 0 mm 0.00 W/m2 SCT
05:18 -7.9 °C -8.3 °C 34191.8 hPa Calm     95 % 0 mm 0.00 W/m2 SCT
05:24 -7.9 °C -8.3 °C 34188.4 hPa NNW 10.3 km/h 3.4 km/h 95 % 0 mm 0.00 W/m2 SCT
05:29 -7.9 °C -8.3 °C 34185.1 hPa North 15.6 km/h 10.6 km/h 95 % 0 mm 0.00 W/m2 SCT
05:34 -7.9 °C -8.4 °C 34174.9 hPa ENE 9 km/h 2.9 km/h 95 % 0 mm 0.00 W/m2 SCT
05:39 -7.9 °C -8.3 °C 34181.7 hPa ESE 5.1 km/h 0.3 km/h 95 % 0 mm 0.00 W/m2 SCT
05:44 -7.9 °C -8.3 °C 34185.1 hPa NW 9 km/h 5 km/h 95 % 0 mm 0.00 W/m2 SCT
05:49 -7.8 °C -8.3 °C 34181.7 hPa ESE 12.9 km/h 10.3 km/h 95 % 0 mm 0.00 W/m2 SCT
05:54 -7.8 °C -8.3 °C 34185.1 hPa WSW 9 km/h 3.9 km/h 95 % 0 mm 0.00 W/m2 SCT
05:58 -7.8 °C -8.3 °C 34178.3 hPa North 12.9 km/h 9.7 km/h 95 % 0 mm 0.00 W/m2 SCT
06:03 -7.8 °C -8.3 °C 34178.3 hPa North 3.1 km/h   95 % 0 mm 0.00 W/m2 BKN
06:08 -7.8 °C -8.3 °C 34178.3 hPa Calm     95 % 0 mm 0.00 W/m2 BKN
06:13 -7.8 °C -8.3 °C 34178.3 hPa NNW 12.9 km/h 10.6 km/h 95 % 0 mm 0.00 W/m2 BKN
06:19 -7.8 °C -8.3 °C 34174.9 hPa NNE 15.6 km/h 11.1 km/h 95 % 0 mm 0.00 W/m2 BKN
06:23 -7.9 °C -8.4 °C 34171.5 hPa North 10.3 km/h 9.3 km/h 95 % 0 mm 0.00 W/m2 BKN
06:28 -7.9 °C -8.4 °C 34171.5 hPa North 9 km/h 4.2 km/h 95 % 0 mm 0.00 W/m2 BKN
06:34 -7.9 °C -8.4 °C 34164.7 hPa East 10.3 km/h 5 km/h 95 % 0 mm 7.00 W/m2 BKN
06:38 -7.9 °C -8.4 °C 34164.7 hPa Calm     95 % 0 mm 9.00 W/m2 BKN
06:43 -7.9 °C -8.4 °C 34171.5 hPa Calm     95 % 0 mm 18.00 W/m2 BKN
06:49 -7.9 °C -8.4 °C 34161.4 hPa Calm     95 % 0 mm 30.00 W/m2 BKN
06:53 -7.9 °C -8.4 °C 34168.1 hPa NNW 10.3 km/h 6.8 km/h 95 % 0 mm 39.00 W/m2 BKN
06:58 -8 °C -8.4 °C 34171.5 hPa NNW 9 km/h 5 km/h 95 % 0 mm 42.00 W/m2 BKN
07:04 -8 °C -8.5 °C 34171.5 hPa NNW 10.3 km/h 5.5 km/h 95 % 0 mm 47.00 W/m2 BKN
07:08 -8 °C -8.5 °C 34181.7 hPa ENE 12.9 km/h 5.5 km/h 95 % 0 mm 46.00 W/m2 BKN
07:13 -8 °C -8.5 °C 34185.1 hPa ENE 6 km/h 0.8 km/h 95 % 0 mm 32.00 W/m2 BKN
07:19 -7.9 °C -8.4 °C 34185.1 hPa ENE 6 km/h 1.6 km/h 95 % 0 mm 37.00 W/m2 BKN
07:24 -7.9 °C -8.4 °C 34181.7 hPa North 9 km/h 1.8 km/h 95 % 0 mm 39.00 W/m2 BKN
07:28 -7.9 °C -8.4 °C 34185.1 hPa North 2.6 km/h 0.5 km/h 95 % 0 mm 32.00 W/m2 BKN
07:34 -7.9 °C -8.4 °C 34181.7 hPa NE 9 km/h 3.4 km/h 95 % 7.62 mm 44.00 W/m2 RA
07:39 -7.9 °C -8.4 °C 34185.1 hPa NE 6 km/h 1.6 km/h 95 % 7.62 mm 40.00 W/m2 RA
07:43 -7.9 °C -8.4 °C 34185.1 hPa ENE 6 km/h 1.8 km/h 95 % 7.62 mm 47.00 W/m2 RA
07:49 -7.9 °C -8.3 °C 34185.1 hPa ESE 9 km/h 3.4 km/h 95 % 7.62 mm 62.00 W/m2 BKN
07:54 -7.8 °C -8.3 °C 34181.7 hPa ESE 6 km/h 3.4 km/h 95 % 7.62 mm 104.00 W/m2 BKN
07:58 -7.8 °C -8.3 °C 34171.5 hPa East 12.9 km/h 9.3 km/h 95 % 7.62 mm 111.00 W/m2 BKN
08:04 -7.8 °C -8.2 °C 34174.9 hPa East 6 km/h 2.1 km/h 95 % 7.62 mm 95.00 W/m2 BKN
08:09 -7.7 °C -8.2 °C 34181.7 hPa SE 5.1 km/h 1.3 km/h 95 % 7.62 mm 58.00 W/m2 BKN
08:14 -7.7 °C -8.2 °C 34181.7 hPa Calm     95 % 7.62 mm 74.00 W/m2 BKN
08:19 -7.7 °C -8.2 °C 34181.7 hPa Calm     95 % 7.62 mm 97.00 W/m2 BKN
08:23 -7.7 °C -8.2 °C 34181.7 hPa SE 3.1 km/h   95 % 7.62 mm 111.00 W/m2 BKN
08:28 -7.6 °C -8.1 °C 34181.7 hPa SE 3.1 km/h 0.8 km/h 95 % 7.62 mm 97.00 W/m2 BKN
08:33 -7.6 °C -8.1 °C 34185.1 hPa Calm     95 % 7.62 mm 81.00 W/m2 BKN
08:38 -7.6 °C -8 °C 34188.4 hPa West 10.3 km/h 7.2 km/h 95 % 7.62 mm 40.00 W/m2 RA
08:43 -7.5 °C -8.1 °C 34188.4 hPa WNW 6 km/h 3.4 km/h 94 % 7.62 mm 26.00 W/m2 RA
08:48 -7.4 °C -7.9 °C 34188.4 hPa NW 9 km/h 3.7 km/h 95 % 7.62 mm 23.00 W/m2 BKN
08:53 -7.4 °C -8 °C 34188.4 hPa NW 9 km/h 3.9 km/h 94 % 7.62 mm 33.00 W/m2 BKN
08:58 -7.4 °C -8 °C 34185.1 hPa Calm     94 % 12.7 mm 46.00 W/m2 RA
09:03 -7.4 °C -7.9 °C 34188.4 hPa NW 3.1 km/h 0.3 km/h 94 % 12.7 mm 51.00 W/m2 RA
09:08 -7.4 °C -7.9 °C 34185.1 hPa NW 7.7 km/h 4.3 km/h 94 % 12.7 mm 67.00 W/m2 BKN
09:14 -7.4 °C -8 °C 34181.7 hPa NW 6 km/h 4.3 km/h 94 % 12.7 mm 116.00 W/m2 BKN
09:18 -7.4 °C -8 °C 34181.7 hPa Calm     94 % 12.7 mm 142.00 W/m2 BKN
09:23 -7.4 °C -7.9 °C 34185.1 hPa NW 9 km/h 5.5 km/h 94 % 12.7 mm 195.00 W/m2 BKN
09:29 -7.3 °C -7.9 °C 34181.7 hPa NNW 6 km/h 1.8 km/h 94 % 12.7 mm 218.00 W/m2 BKN
09:33 -7.3 °C -7.8 °C 34181.7 hPa North 6 km/h 2.3 km/h 94 % 20.32 mm 230.00 W/m2 -RA
09:39 -7.2 °C -7.8 °C 34178.3 hPa North 9 km/h 2.3 km/h 94 % 12.7 mm 227.00 W/m2 -RA
09:44 -7.1 °C -7.8 °C 34181.7 hPa North 6 km/h 1.8 km/h 93 % 12.7 mm 248.00 W/m2 -RA
09:48 -7.1 °C -7.6 °C 34178.3 hPa NW 10.3 km/h 7.2 km/h 94 % 12.7 mm 206.00 W/m2 -RA
09:54 -7.1 °C -7.7 °C 34174.9 hPa NNW 12.9 km/h 10.6 km/h 93 % 7.62 mm 199.00 W/m2 -RA
09:59 -6.9 °C -7.6 °C 34174.9 hPa NNW 9 km/h 4.3 km/h 93 % 7.62 mm 178.00 W/m2 -RA
10:03 -6.8 °C -7.5 °C 34178.3 hPa NNW 10.3 km/h 6.3 km/h 93 % 7.62 mm 148.00 W/m2 BKN
10:09 -6.8 °C -7.6 °C 34178.3 hPa NW 10.3 km/h 6.9 km/h 92 % 7.62 mm 121.00 W/m2 BKN
10:14 -6.8 °C -7.6 °C 34185.1 hPa WNW 10.3 km/h 4.7 km/h 92 % 7.62 mm 67.00 W/m2 BKN
10:18 -6.8 °C -7.6 °C 34188.4 hPa WNW 11.9 km/h 8 km/h 92 % 7.62 mm 74.00 W/m2 BKN
10:24 -6.8 °C -7.6 °C 34191.8 hPa West 9 km/h 2.9 km/h 92 % 7.62 mm 56.00 W/m2 BKN
10:29 -6.8 °C -7.5 °C 34191.8 hPa West 10.3 km/h 6.8 km/h 92 % 7.62 mm 56.00 W/m2 BKN
10:34 -6.8 °C -7.7 °C 34188.4 hPa NW 15.6 km/h 11.9 km/h 91 % 7.62 mm 51.00 W/m2 -RA
10:39 -6.9 °C -7.7 °C 34188.4 hPa North 12.9 km/h 9 km/h 91 % 12.7 mm 58.00 W/m2 -RA
10:44 -6.9 °C -7.7 °C 34191.8 hPa NNW 11.9 km/h 6.4 km/h 91 % 12.7 mm 60.00 W/m2 -RA
10:48 -6.9 °C -7.8 °C 34191.8 hPa NNW 5.1 km/h 2.3 km/h 91 % 12.7 mm 42.00 W/m2 -RA
10:53 -6.9 °C -7.7 °C 34195.2 hPa NNW 3.1 km/h 0.3 km/h 92 % 20.32 mm 37.00 W/m2 -RA
10:58 -6.9 °C -7.7 °C 34208.8 hPa NW 6 km/h 1.6 km/h 92 % 20.32 mm 28.00 W/m2 -RA
11:03 -6.9 °C -7.7 °C 34195.2 hPa NNW 9 km/h 5.1 km/h 92 % 50.8 mm 47.00 W/m2 -RA
11:08 -7 °C -7.7 °C 34198.6 hPa NW 18.2 km/h 12.7 km/h 92 % 83.82 mm 51.00 W/m2 -RA
11:13 -7.1 °C -7.8 °C 34198.6 hPa NNW 23.8 km/h 16.3 km/h 92 % 104.14 mm 54.00 W/m2 -RA
11:18 -7.2 °C -8.1 °C 34198.6 hPa NNW 15 km/h 10.1 km/h 91 % 104.14 mm 51.00 W/m2 -RA
Juneau County Weather
Compliments of Weather Underground - 2.5 mb